Northern & Central Napa County

32 Stations

15 Minute Data | America/Los_Angeles
as of 5/5/26 7:25 AM PDT
Station Date Time Temp (°F) RH (%) Dew Pt (°F) Wind Spd (mph) Wind Dir (°) Wind Gust (mph) Latest Rain (In) Daily Rain (In) Daily Max Temp (°F) Daily Min Temp (°F)
Calistoga-North 5/5/26 0700 52.4   2.2 99   5 52.0   3.6 - - - 0.00 0.02 52.9   0.8 51.9   3.7
Stags Leap Dist (Chimney Rock) 5/5/26 0715 53.4   6.8 97   2 52.7   6.2 1.3   1.0 SSE | 148 3.5   2.0 0.00 0.01 53.5   4.1 52.9   10.1
Diamond Mtn (McEachran) 5/5/26 0715 51.9   2.4 95   5 50.6   3.8 - - - - - 52.1   1.0 51.1   3.7
Diamond Mtn (Schramsberg) 5/5/26 0715 50.9   1.2 100   10 50.9   3.8 - - - 0.00 0.01 51.0   1.2 49.8   2.4
Stags Leap Dist (Silverado Vineyards) 5/5/26 0715 52.4   6.0 94   1 50.8   5.6 0.1   0.4 SSE | 164 0.8   1.1 0.00 0.02 52.6   2.3 51.9   8.3
Oak Knoll-East (Ranch 53) 5/5/26 0715 53.0   5.8 96   2 51.9   6.2 0.3   0.0 S | 178 1.2   0.4 0.00 0.02 53.4   3.0 52.5   8.7
Rutherford-North (Mee Ln) 5/5/26 0715 47.9   3.8 96   1 46.9   4.0 0.9   0.9 SE | 134 2.0   2.0 0.00 0.01 48.9   0.0 47.7   6.4
Frisinger Napa-NW 5/5/26 0715 53.4   4.7 96   1 52.2   4.9 0.8   0.6 SW | 221 1.7   0.1 0.00 0.01 53.5   4.2 52.8   8.0
Napa-North (Ranch 29) 5/5/26 0715 52.6   5.8 100   0 52.6   5.8 0.0   0.3 SE | 127 0.6   0.9 0.00 0.02 52.8   2.8 52.1   7.7
St. Helena (NVV Office) 5/5/26 0715 53.6   5.4 - - 0.6   0.5 NW | 317 2.2   1.2 0.00 0.01 53.8   0.9 52.9   6.8
Crossroads Ranch 5/5/26 0715 53.5   6.8 93   2 51.5   6.2 1.5   1.4 SSE | 165 2.9   2.0 0.00 0.01 53.6   2.9 52.7   9.1
Oakville 5/5/26 0715 53.2   6.5 96   0 52.2   6.4 0.9   0.4 SSE | 158 2.1   0.7 0.00 0.16 53.3   3.0 52.4   8.8
OV561-East 5/5/26 0715 53.5   7.0 - - - - - - - 53.6   2.7 52.7   8.5
OV518-West 5/5/26 0715 53.2   6.1 - - - - - - - 53.3   3.4 52.5   8.9
Napa-NW (Ranch 54) 5/5/26 0715 53.6   5.5 100   0 53.6   5.5 0.0   0.1 N | 0 0.0   0.7 0.00 0.01 53.7   4.3 52.9   7.6
Calistoga (Ranch 78) 5/5/26 0715 53.5   2.8 89   2 50.4   3.4 2.8   2.3 NW | 320 4.5   2.8 0.00 0.01 53.5   2.7 52.6   6.1
Yountville-SE (Ranch 85) 5/5/26 0715 53.0   5.2 100   2 53.0   5.8 0.8   0.7 S | 190 2.5   1.2 0.00 0.01 53.2   2.3 52.6   8.8
Yountville-South (Ranch 87) 5/5/26 0715 53.0   4.7 100   0 53.0   4.7 1.0   0.3 S | 181 2.4   0.9 0.00 0.02 53.2   3.5 52.5   8.9
Rutherford Hill Estate 5/5/26 0715 52.0   4.0 100   6 52.0   5.7 0.2   0.6 S | 181 2.0   0.0 0.00 0.01 52.3   1.5 51.2   4.4
Rutherford (STS) 5/5/26 0715 53.6   5.3 84   5 48.8   3.6 0.3   0.1 SE | 135 1.4   0.1 0.00 0.11 53.6   3.9 52.3   9.4
Borreo (Soda Canyon) 5/5/26 0615 50.6   8.6 98   2 50.0   9.0 0.1   1.7 SE | 126 0.7   2.8 0.00 0.02 50.8   4.3 50.3   8.7
Oakville-NE (Ranch 88) 5/5/26 0715 53.3   7.6 100   6 53.2   9.1 0.0   0.0 N | 0 0.0   0.0 0.00 0.02 53.5   4.3 52.2   9.6
Soda Canyon 5/5/26 0715 53.0   7.2 92   1 50.6   6.7 0.0   0.0 N | 0 0.0   0.0 0.00 0.01 53.1   6.0 52.5   12.1
Silver Oak OV 5/5/26 0715 53.5   6.8 95   1 52.2   6.6 1.3   1.2 SSE | 151 2.3   1.4 0.00 0.02 53.6   2.0 52.6   9.8
Tiara Fria (East St. Helena) 5/5/26 0715 53.8   6.1 95   3 52.4   6.9 0.8   0.6 SSE | 159 2.1   1.0 0.00 0.01 53.8   2.1 52.9   7.1
To Kalon Remote (TKKE) 5/5/26 0715 53.8   6.2 - - - - - - - 54.2   4.7 52.9   9.9
To Kalon 5/5/26 0715 53.3   5.6 97   1 52.6   5.4 0.0   0.0 SSE | 152 1.2   0.7 0.00 0.01 53.5   3.1 52.4   8.8
To Kalon Remote (TKN5) 5/5/26 0715 53.8   6.3 - - - - - - - 53.9   1.1 52.8   9.3
St. Helena-North 5/5/26 0715 53.0   5.1 100   12 53.0   8.6 0.2   0.0 NW | 308 1.5   0.4 0.00 0.01 53.4   1.4 52.6   6.2
Twomey Calistoga 5/5/26 0715 53.4   4.0 92   2 51.1   3.5 1.6   1.2 WNW | 283 3.8   2.6 0.00 0.01 53.4   4.0 52.3   7.0
Wappo Hill Floor 5/5/26 0715 50.8   4.8 100   0 50.8   4.8 1.0   0.7 S | 188 2.8   1.1 0.00 0.03 50.8   1.8 50.2   8.0
Yountville (Ranch 67) 5/5/26 0715 52.6   5.7 96   1 51.5   5.9 1.3   0.9 S | 190 2.6   1.3 0.00 0.03 52.8   2.9 51.7   8.5
Max     53.8 100 53.6 2.8 - 4.5 0.00 0.16 54.2 52.9
Avg     52.8 96 51.6 0.7 - 1.9 0.00 - - -
Min     47.9 84 46.9 0.0 - 0.0 0.00 0.01 48.9 47.7